Time;durP1;ratioP1;P1;durP2;ratioP2;P2;SDS_P1;SDS_P2;PMS_P1;PMS_P2;Temp;Humidity;BMP_temperature;BMP_pressure;BME280_temperature;BME280_humidity;BME280_pressure;Samples;Min_cycle;Max_cycle;Signal;HPM_P1;HPM_P2
2021/05/22 00:00:50;;;;;;;1.15;0.68;;;10.50;99.90;;;;;;5057262;28;20218;-79
2021/05/22 00:03:16;;;;;;;1.00;0.60;;;10.50;99.90;;;;;;5063075;28;20192;-79
2021/05/22 00:05:43;;;;;;;0.50;0.40;;;10.50;99.90;;;;;;5072996;28;20639;-78
2021/05/22 00:08:09;;;;;;;0.50;0.40;;;10.50;99.90;;;;;;5073046;28;20204;-79
2021/05/22 00:10:35;;;;;;;2.25;0.90;;;10.60;99.90;;;;;;5073792;28;20195;-77
2021/05/22 00:13:03;;;;;;;0.50;0.40;;;10.60;99.90;;;;;;5074626;28;20204;-77
2021/05/22 00:15:29;;;;;;;0.60;0.60;;;10.60;99.90;;;;;;5073971;28;20652;-79
2021/05/22 00:17:55;;;;;;;0.60;0.60;;;10.60;99.90;;;;;;5074980;28;20225;-79
2021/05/22 00:20:22;;;;;;;0.50;0.40;;;10.60;99.90;;;;;;5073231;28;20222;-78
2021/05/22 00:22:48;;;;;;;0.60;0.55;;;10.60;99.90;;;;;;5073684;28;20220;-78
2021/05/22 00:25:15;;;;;;;0.50;0.40;;;10.60;99.90;;;;;;5073527;28;20196;-75
2021/05/22 00:27:42;;;;;;;1.60;0.50;;;10.60;99.90;;;;;;5074489;28;20212;-77
2021/05/22 00:30:11;;;;;;;0.50;0.40;;;10.50;99.90;;;;;;5073493;28;20207;-78
2021/05/22 00:32:38;;;;;;;0.50;0.40;;;10.60;99.90;;;;;;5074326;28;20195;-79
2021/05/22 00:35:06;;;;;;;0.85;0.85;;;10.60;99.90;;;;;;5074108;28;20600;-79
2021/05/22 00:37:32;;;;;;;0.60;0.50;;;10.60;99.90;;;;;;5073887;28;20208;-80
2021/05/22 00:39:59;;;;;;;0.50;0.40;;;10.60;99.90;;;;;;5073941;28;20258;-80
2021/05/22 00:42:26;;;;;;;0.70;0.50;;;10.60;99.90;;;;;;5073673;28;20199;-79
2021/05/22 00:45:15;;;;;;;0.50;0.40;;;10.60;99.90;;;;;;5073496;28;20216;-79
2021/05/22 00:47:43;;;;;;;0.60;0.50;;;10.60;99.90;;;;;;5072774;28;20246;-78
2021/05/22 00:50:12;;;;;;;0.50;0.40;;;10.60;99.90;;;;;;5072310;28;20213;-79
2021/05/22 00:52:38;;;;;;;0.50;0.40;;;10.60;99.90;;;;;;5072512;28;20286;-78
2021/05/22 00:55:06;;;;;;;0.60;0.60;;;10.60;99.90;;;;;;5072319;28;20597;-78
2021/05/22 00:57:33;;;;;;;1.80;0.70;;;10.60;99.90;;;;;;5072447;28;20283;-78
2021/05/22 00:59:59;;;;;;;0.50;0.40;;;10.50;99.90;;;;;;5071518;28;20218;-77
2021/05/22 01:02:27;;;;;;;0.50;0.40;;;10.50;99.90;;;;;;5072535;28;20244;-78
2021/05/22 01:04:54;;;;;;;1.13;0.77;;;10.50;99.90;;;;;;5071907;28;20192;-77
2021/05/22 01:07:21;;;;;;;0.50;0.50;;;10.40;99.90;;;;;;5076000;28;20685;-78
2021/05/22 01:09:50;;;;;;;0.50;0.40;;;10.40;99.90;;;;;;5076482;28;20215;-78
2021/05/22 01:12:18;;;;;;;0.50;0.40;;;10.40;99.90;;;;;;5075732;28;20204;-76
2021/05/22 01:14:48;;;;;;;0.50;0.30;;;10.40;99.90;;;;;;5075979;28;20224;-78
2021/05/22 01:17:18;;;;;;;16.50;2.88;;;10.30;99.90;;;;;;5076248;28;20283;-78
2021/05/22 01:19:53;;;;;;;0.50;0.40;;;10.30;99.90;;;;;;5076642;28;20207;-78
2021/05/22 01:22:19;;;;;;;0.50;0.40;;;10.30;99.90;;;;;;5075252;28;20761;-78
2021/05/22 01:24:49;;;;;;;0.50;0.40;;;10.40;99.90;;;;;;5075729;28;20257;-78
2021/05/22 01:27:17;;;;;;;0.50;0.40;;;10.40;99.90;;;;;;5076047;28;20288;-78
2021/05/22 01:29:44;;;;;;;0.50;0.40;;;10.40;99.90;;;;;;5075898;28;20223;-78
2021/05/22 01:32:11;;;;;;;0.50;0.40;;;10.40;99.90;;;;;;5075863;28;20198;-76
2021/05/22 01:34:38;;;;;;;0.68;0.60;;;10.40;99.90;;;;;;5075789;28;20202;-77
2021/05/22 01:37:05;;;;;;;1.08;0.98;;;10.40;99.90;;;;;;5075799;28;20657;-78
2021/05/22 01:39:31;;;;;;;0.50;0.40;;;10.40;99.90;;;;;;5075995;28;20220;-78
2021/05/22 01:41:57;;;;;;;3.60;0.60;;;10.40;99.90;;;;;;5075472;28;20245;-79
2021/05/22 01:44:27;;;;;;;0.50;0.40;;;10.30;99.90;;;;;;5074853;28;20679;-78
2021/05/22 01:46:54;;;;;;;0.50;0.40;;;10.30;99.90;;;;;;5075496;28;20211;-80
2021/05/22 01:49:25;;;;;;;0.50;0.40;;;10.20;99.90;;;;;;5075890;28;20220;-78
2021/05/22 01:51:53;;;;;;;0.50;0.40;;;10.20;99.90;;;;;;5076184;28;20230;-78
2021/05/22 01:54:21;;;;;;;1.10;0.65;;;10.20;99.90;;;;;;5075307;28;20199;-78
2021/05/22 01:56:49;;;;;;;0.73;0.73;;;10.10;99.90;;;;;;5075322;28;20202;-78
2021/05/22 01:59:15;;;;;;;0.50;0.40;;;10.10;99.90;;;;;;5075017;28;20234;-78
2021/05/22 02:01:43;;;;;;;0.50;0.40;;;10.00;99.90;;;;;;5075600;28;20197;-80
2021/05/22 02:04:09;;;;;;;1.45;0.70;;;10.00;99.90;;;;;;5075036;28;20200;-78
2021/05/22 02:06:39;;;;;;;0.50;0.40;;;9.90;99.90;;;;;;5075093;28;20220;-77
2021/05/22 02:09:06;;;;;;;0.50;0.50;;;9.90;99.90;;;;;;5075569;28;20571;-75
2021/05/22 02:11:35;;;;;;;0.50;0.40;;;9.90;99.90;;;;;;5075162;28;20195;-78
2021/05/22 02:14:05;;;;;;;0.50;0.50;;;9.90;99.90;;;;;;5074291;28;20562;-78
2021/05/22 02:16:34;;;;;;;0.50;0.40;;;9.90;99.90;;;;;;5074680;28;20539;-78
2021/05/22 02:19:04;;;;;;;2.38;0.80;;;9.90;99.90;;;;;;5075314;28;20221;-78
2021/05/22 02:21:32;;;;;;;0.50;0.40;;;9.90;99.90;;;;;;5074639;28;20663;-78
2021/05/22 02:23:58;;;;;;;0.50;0.50;;;9.90;99.90;;;;;;5074893;28;20257;-77
2021/05/22 02:26:26;;;;;;;0.50;0.40;;;9.90;99.90;;;;;;5074496;28;20212;-77
2021/05/22 02:28:54;;;;;;;0.50;0.50;;;9.90;99.90;;;;;;5074009;28;20225;-78
2021/05/22 02:31:26;;;;;;;0.50;0.50;;;9.90;99.90;;;;;;5074964;28;20183;-77
2021/05/22 02:33:56;;;;;;;0.50;0.40;;;9.90;99.90;;;;;;5074396;28;20201;-78
2021/05/22 02:36:24;;;;;;;0.50;0.40;;;10.00;99.90;;;;;;5074496;28;20668;-78
2021/05/22 02:38:51;;;;;;;0.50;0.40;;;10.00;99.90;;;;;;5074450;28;20214;-78
2021/05/22 02:41:19;;;;;;;0.50;0.40;;;10.00;99.90;;;;;;5074304;28;20671;-77
2021/05/22 02:43:48;;;;;;;0.95;0.95;;;10.10;99.90;;;;;;5073805;28;20250;-78
2021/05/22 02:46:17;;;;;;;0.60;0.50;;;10.10;99.90;;;;;;5074046;28;20210;-78
2021/05/22 02:48:44;;;;;;;0.50;0.40;;;10.20;99.90;;;;;;5074190;28;20238;-78
2021/05/22 02:51:13;;;;;;;0.82;0.82;;;10.20;99.90;;;;;;5074594;28;20285;-76
2021/05/22 02:53:42;;;;;;;0.50;0.40;;;10.20;99.90;;;;;;5074017;28;20246;-79
2021/05/22 02:56:11;;;;;;;0.50;0.40;;;10.20;99.90;;;;;;5074566;28;20192;-77
2021/05/22 02:58:40;;;;;;;0.60;0.50;;;10.20;99.90;;;;;;5073754;28;20239;-78
2021/05/22 03:01:07;;;;;;;0.60;0.52;;;10.20;99.90;;;;;;5065995;28;20192;-77
2021/05/22 03:03:34;;;;;;;2.80;0.60;;;10.30;99.90;;;;;;5073415;28;20196;-78
2021/05/22 03:06:00;;;;;;;0.50;0.40;;;10.30;99.90;;;;;;5073390;28;20609;-77
2021/05/22 03:08:28;;;;;;;0.50;0.40;;;10.30;99.90;;;;;;5073939;28;20277;-77
2021/05/22 03:10:56;;;;;;;0.60;0.60;;;10.30;99.90;;;;;;5074282;28;20254;-80
2021/05/22 03:13:22;;;;;;;0.50;0.40;;;10.30;99.90;;;;;;5073157;28;20191;-78
2021/05/22 03:15:48;;;;;;;0.50;0.40;;;10.30;99.90;;;;;;5073605;28;20215;-77
2021/05/22 03:18:14;;;;;;;0.50;0.40;;;10.30;99.90;;;;;;5074041;28;20705;-78
2021/05/22 03:20:41;;;;;;;4.82;0.95;;;10.40;99.90;;;;;;5073362;28;20206;-78
2021/05/22 03:23:07;;;;;;;0.50;0.40;;;10.40;99.90;;;;;;5073608;28;20207;-76
2021/05/22 03:25:33;;;;;;;0.60;0.57;;;10.40;99.90;;;;;;5073648;28;20221;-79
2021/05/22 03:28:00;;;;;;;0.50;0.40;;;10.50;99.90;;;;;;5073432;28;20685;-79
2021/05/22 03:30:27;;;;;;;0.50;0.40;;;10.50;99.90;;;;;;5072783;28;20215;-78
2021/05/22 03:32:53;;;;;;;1.02;0.50;;;10.50;99.90;;;;;;5073610;28;20215;-77
2021/05/22 03:35:19;;;;;;;5.47;0.50;;;10.50;99.90;;;;;;5073099;28;20249;-78
2021/05/22 03:37:46;;;;;;;0.50;0.40;;;10.50;99.90;;;;;;5073059;28;20195;-76
2021/05/22 03:40:12;;;;;;;0.50;0.40;;;10.50;99.90;;;;;;5073331;28;20269;-78
2021/05/22 03:42:39;;;;;;;0.50;0.40;;;10.50;99.90;;;;;;5073931;28;20196;-78
2021/05/22 03:45:08;;;;;;;0.60;0.52;;;10.50;99.90;;;;;;5072496;28;20195;-78
2021/05/22 03:47:34;;;;;;;0.50;0.40;;;10.50;99.90;;;;;;5073007;28;20228;-78
2021/05/22 03:50:01;;;;;;;0.57;0.50;;;10.50;99.90;;;;;;5073005;28;20215;-78
2021/05/22 03:52:27;;;;;;;0.50;0.40;;;10.50;99.90;;;;;;5073158;28;20196;-78
2021/05/22 03:54:53;;;;;;;11.65;3.83;;;10.50;99.90;;;;;;5072581;28;20659;-79
2021/05/22 03:57:20;;;;;;;2.25;0.50;;;10.50;99.90;;;;;;5073219;28;20343;-76
2021/05/22 03:59:46;;;;;;;0.88;0.60;;;10.50;99.90;;;;;;5072070;28;20232;-78
2021/05/22 04:02:13;;;;;;;0.50;0.40;;;10.50;99.90;;;;;;5072579;28;20204;-75
2021/05/22 04:04:39;;;;;;;0.50;0.43;;;10.60;99.90;;;;;;5072118;28;20196;-78
2021/05/22 04:07:05;;;;;;;0.50;0.40;;;10.60;99.90;;;;;;5072543;28;20614;-77
2021/05/22 04:09:32;;;;;;;0.50;0.40;;;10.60;99.90;;;;;;5072628;28;20215;-76
2021/05/22 04:11:58;;;;;;;0.50;0.40;;;10.60;99.90;;;;;;5072313;28;20194;-78
2021/05/22 04:14:24;;;;;;;0.50;0.40;;;10.60;99.90;;;;;;5071558;28;20196;-78
2021/05/22 04:16:51;;;;;;;3.35;1.13;;;10.60;99.90;;;;;;5072705;28;20286;-79
2021/05/22 04:19:18;;;;;;;1.17;1.08;;;10.60;99.90;;;;;;5072425;28;20224;-79
2021/05/22 04:21:44;;;;;;;6.57;1.15;;;10.60;99.90;;;;;;5072688;28;20249;-78
2021/05/22 04:24:10;;;;;;;1.17;0.75;;;10.50;99.90;;;;;;5071952;28;20193;-78
2021/05/22 04:26:37;;;;;;;0.50;0.50;;;10.50;99.90;;;;;;5071938;28;20222;-77
2021/05/22 04:29:04;;;;;;;7.60;1.42;;;10.50;99.90;;;;;;5072268;28;20277;-77
2021/05/22 04:31:30;;;;;;;0.50;0.40;;;10.60;99.90;;;;;;5072118;28;20198;-78
2021/05/22 04:33:56;;;;;;;6.57;0.77;;;10.60;99.90;;;;;;5072015;28;20688;-77
2021/05/22 04:36:23;;;;;;;3.30;1.02;;;10.60;99.90;;;;;;5072647;28;20200;-78
2021/05/22 04:38:51;;;;;;;0.50;0.40;;;10.60;99.90;;;;;;5076300;28;20217;-78
2021/05/22 04:41:18;;;;;;;0.50;0.40;;;10.70;99.90;;;;;;5075390;28;20295;-76
2021/05/22 04:43:44;;;;;;;1.08;1.08;;;10.70;99.90;;;;;;5076836;28;20208;-77
2021/05/22 04:46:10;;;;;;;4.22;0.85;;;10.70;99.90;;;;;;5076029;28;20228;-78
2021/05/22 04:48:36;;;;;;;1.38;0.60;;;10.70;99.90;;;;;;5075590;28;20216;-78
2021/05/22 04:51:03;;;;;;;0.50;0.50;;;10.70;99.90;;;;;;5075620;28;20771;-76
2021/05/22 04:53:31;;;;;;;1.92;1.83;;;10.70;99.90;;;;;;5073465;28;20303;-79
2021/05/22 04:55:57;;;;;;;0.50;0.40;;;10.80;99.90;;;;;;5072763;28;20200;-78
2021/05/22 04:58:23;;;;;;;0.50;0.40;;;10.80;99.90;;;;;;5072335;28;20218;-79
2021/05/22 05:00:49;;;;;;;1.02;0.85;;;10.80;99.90;;;;;;5073212;28;20187;-78
2021/05/22 05:03:15;;;;;;;0.77;0.77;;;10.90;99.90;;;;;;5072107;28;20203;-78
2021/05/22 05:05:42;;;;;;;0.95;0.85;;;10.90;99.90;;;;;;5072282;28;20217;-79
2021/05/22 05:08:08;;;;;;;0.70;0.70;;;10.90;99.90;;;;;;5071771;28;20743;-78
2021/05/22 05:10:35;;;;;;;3.40;1.08;;;10.90;99.90;;;;;;5072119;28;20207;-79
2021/05/22 05:13:01;;;;;;;0.50;0.40;;;10.90;99.90;;;;;;5073302;28;20267;-78
2021/05/22 05:15:28;;;;;;;1.25;0.68;;;11.00;99.90;;;;;;5073581;28;20658;-78
2021/05/22 05:17:54;;;;;;;1.70;0.60;;;11.10;99.90;;;;;;5073588;28;20681;-77
2021/05/22 05:20:20;;;;;;;0.70;0.70;;;11.10;99.90;;;;;;5074831;28;20445;-78
2021/05/22 05:22:50;;;;;;;1.95;1.10;;;11.10;99.90;;;;;;5075790;28;20205;-77
2021/05/22 05:25:17;;;;;;;5.38;1.05;;;11.10;99.90;;;;;;5072767;28;20196;-75
2021/05/22 05:27:44;;;;;;;0.88;0.82;;;11.10;99.90;;;;;;5072280;28;20217;-78
2021/05/22 05:30:11;;;;;;;5.95;0.77;;;11.10;99.90;;;;;;5071548;28;20228;-76
2021/05/22 05:32:37;;;;;;;0.50;0.40;;;11.20;99.90;;;;;;5071764;28;20700;-78
2021/05/22 05:35:04;;;;;;;1.33;1.23;;;11.20;99.90;;;;;;5071675;28;20597;-80
2021/05/22 05:37:30;;;;;;;1.13;0.70;;;11.20;99.90;;;;;;5071973;28;20276;-79
2021/05/22 05:39:57;;;;;;;0.50;0.40;;;11.20;99.90;;;;;;5072184;28;20273;-78
2021/05/22 05:42:23;;;;;;;0.50;0.40;;;11.20;99.90;;;;;;5071457;28;20193;-79
2021/05/22 05:44:50;;;;;;;2.90;0.52;;;11.20;99.90;;;;;;5071297;28;20200;-78
2021/05/22 05:47:16;;;;;;;0.85;0.85;;;11.20;99.90;;;;;;5071964;28;20223;-77
2021/05/22 05:49:42;;;;;;;0.57;0.50;;;11.30;99.90;;;;;;5071691;28;20217;-78
2021/05/22 05:52:09;;;;;;;18.42;2.40;;;11.30;99.90;;;;;;5073096;28;20673;-80
2021/05/22 05:54:35;;;;;;;0.77;0.77;;;11.30;99.90;;;;;;5075048;28;20200;-79
2021/05/22 05:57:02;;;;;;;0.80;0.50;;;11.30;99.90;;;;;;5075805;28;20193;-78
2021/05/22 05:59:28;;;;;;;0.50;0.50;;;11.30;99.90;;;;;;5074988;28;20216;-78
2021/05/22 06:01:55;;;;;;;0.50;0.50;;;11.30;99.90;;;;;;5075495;28;20190;-78
2021/05/22 06:04:22;;;;;;;0.73;0.73;;;11.30;99.90;;;;;;5075523;28;20283;-79
2021/05/22 06:06:49;;;;;;;3.25;1.05;;;11.30;99.90;;;;;;5075608;28;20216;-78
2021/05/22 06:09:16;;;;;;;0.50;0.40;;;11.30;99.90;;;;;;5075852;28;20225;-79
2021/05/22 06:11:42;;;;;;;1.60;0.50;;;11.30;99.90;;;;;;5075696;28;20593;-78
2021/05/22 06:14:14;;;;;;;3.33;0.75;;;11.30;99.90;;;;;;5074972;28;20205;-80
2021/05/22 06:16:40;;;;;;;1.17;1.02;;;11.20;99.90;;;;;;5075226;28;20258;-79
2021/05/22 06:19:08;;;;;;;1.30;1.20;;;11.10;99.90;;;;;;5074943;28;20221;-79
2021/05/22 06:21:36;;;;;;;0.70;0.50;;;11.10;99.90;;;;;;5075357;28;20203;-79
2021/05/22 06:24:03;;;;;;;0.80;0.60;;;11.10;99.90;;;;;;5074640;28;20199;-80
2021/05/22 06:26:30;;;;;;;1.13;0.63;;;11.00;99.90;;;;;;5075220;28;20243;-78
2021/05/22 06:28:56;;;;;;;0.80;0.70;;;10.90;99.90;;;;;;5075161;28;20285;-78
2021/05/22 06:31:22;;;;;;;0.50;0.50;;;10.80;99.90;;;;;;5074401;28;20281;-79
2021/05/22 06:33:49;;;;;;;0.60;0.60;;;10.70;99.90;;;;;;5074684;28;20199;-79
2021/05/22 06:36:16;;;;;;;0.50;0.40;;;10.70;99.90;;;;;;5074907;28;20200;-79
2021/05/22 06:38:42;;;;;;;0.50;0.40;;;10.70;99.90;;;;;;5074562;28;20219;-79
2021/05/22 06:41:08;;;;;;;1.60;0.50;;;10.70;99.90;;;;;;5074464;28;20219;-79
2021/05/22 06:43:35;;;;;;;0.80;0.80;;;10.70;99.90;;;;;;5074406;28;20200;-78
2021/05/22 06:46:06;;;;;;;1.10;0.70;;;10.70;99.90;;;;;;5073831;28;20196;-76
2021/05/22 06:48:32;;;;;;;3.80;1.02;;;10.70;99.90;;;;;;5074754;28;20222;-78
2021/05/22 06:50:59;;;;;;;1.13;1.10;;;10.70;99.90;;;;;;5074403;28;20187;-78
2021/05/22 06:53:26;;;;;;;1.40;1.00;;;10.70;99.90;;;;;;5074930;28;20418;-77
2021/05/22 06:55:52;;;;;;;0.50;0.40;;;10.70;99.90;;;;;;5074823;28;20222;-77
2021/05/22 06:58:19;;;;;;;18.73;1.25;;;10.70;99.90;;;;;;5073851;28;20206;-79
2021/05/22 07:00:45;;;;;;;2.05;1.95;;;10.60;99.90;;;;;;5073976;28;20198;-77
2021/05/22 07:03:11;;;;;;;4.00;0.60;;;10.60;99.90;;;;;;5073103;28;20556;-79
2021/05/22 07:05:38;;;;;;;0.60;0.60;;;10.50;99.90;;;;;;5074729;28;20203;-81
2021/05/22 07:08:04;;;;;;;0.70;0.68;;;10.50;99.90;;;;;;5073838;28;20214;-80
2021/05/22 07:10:32;;;;;;;5.15;2.63;;;10.50;99.90;;;;;;5074281;28;20221;-78
2021/05/22 07:12:58;;;;;;;5.85;1.90;;;10.50;99.90;;;;;;5075083;28;20205;-79
2021/05/22 07:15:25;;;;;;;0.93;0.75;;;10.60;99.90;;;;;;5074138;28;20191;-79
2021/05/22 07:17:51;;;;;;;0.50;0.50;;;10.60;99.90;;;;;;5073765;28;20193;-79
2021/05/22 07:20:18;;;;;;;2.97;0.70;;;10.70;99.90;;;;;;5073951;28;20219;-78
2021/05/22 07:22:45;;;;;;;1.27;0.52;;;10.70;99.90;;;;;;5073844;28;20225;-78
2021/05/22 07:25:12;;;;;;;1.25;1.25;;;10.80;99.90;;;;;;5073593;28;20198;-78
2021/05/22 07:27:39;;;;;;;0.80;0.52;;;10.90;99.90;;;;;;5073495;28;20581;-78
2021/05/22 07:30:08;;;;;;;3.15;0.60;;;11.00;99.90;;;;;;5073548;28;20217;-80
2021/05/22 07:32:34;;;;;;;1.00;0.73;;;11.00;99.90;;;;;;5073731;28;20193;-80
2021/05/22 07:35:01;;;;;;;2.95;0.98;;;11.10;99.90;;;;;;5073604;28;20228;-78
2021/05/22 07:37:27;;;;;;;0.60;0.50;;;11.00;99.90;;;;;;5074860;28;20240;-80
2021/05/22 07:39:56;;;;;;;2.55;0.75;;;10.80;99.90;;;;;;5074328;28;20229;-79
2021/05/22 07:42:25;;;;;;;1.10;1.00;;;10.60;99.90;;;;;;5073419;28;20204;-79
2021/05/22 07:44:52;;;;;;;0.50;0.45;;;10.40;99.90;;;;;;5073676;28;20256;-78
2021/05/22 07:47:18;;;;;;;1.23;1.13;;;10.40;99.90;;;;;;5073320;28;20215;-79
2021/05/22 07:49:45;;;;;;;1.40;0.90;;;10.40;99.90;;;;;;5073224;28;20215;-79
2021/05/22 07:52:12;;;;;;;0.50;0.40;;;10.40;99.90;;;;;;5073569;28;20282;-79
2021/05/22 07:54:39;;;;;;;2.75;1.20;;;10.40;99.90;;;;;;5073734;28;20278;-79
2021/05/22 07:57:08;;;;;;;0.55;0.45;;;10.40;99.90;;;;;;5073709;28;20199;-78
2021/05/22 07:59:34;;;;;;;7.95;1.08;;;10.40;99.90;;;;;;5072964;28;20662;-80
2021/05/22 08:02:02;;;;;;;0.50;0.40;;;10.40;99.90;;;;;;5073105;28;20631;-79
2021/05/22 08:04:29;;;;;;;0.50;0.40;;;10.30;99.90;;;;;;5073405;28;20571;-77
2021/05/22 08:06:55;;;;;;;0.50;0.50;;;10.20;99.90;;;;;;5073255;28;20254;-79
2021/05/22 08:09:22;;;;;;;7.03;0.65;;;10.20;99.90;;;;;;5072829;28;20771;-78
2021/05/22 08:11:48;;;;;;;0.50;0.50;;;10.20;99.90;;;;;;5072769;28;20196;-79
2021/05/22 08:14:15;;;;;;;9.68;0.80;;;10.20;99.90;;;;;;5072126;28;20205;-79
2021/05/22 08:16:41;;;;;;;0.60;0.60;;;10.10;99.90;;;;;;5072527;28;20194;-79
2021/05/22 08:19:09;;;;;;;0.60;0.50;;;10.00;99.90;;;;;;5072461;28;20310;-78
2021/05/22 08:21:35;;;;;;;1.08;0.50;;;10.00;99.90;;;;;;5072286;28;20228;-78
2021/05/22 08:24:01;;;;;;;1.77;0.70;;;9.90;99.90;;;;;;5072518;28;20283;-79
2021/05/22 08:26:28;;;;;;;0.80;0.60;;;9.80;99.90;;;;;;5072615;28;20224;-78
2021/05/22 08:28:55;;;;;;;0.50;0.50;;;9.80;99.90;;;;;;5072020;28;20223;-79
2021/05/22 08:31:22;;;;;;;1.00;0.90;;;9.80;99.90;;;;;;5072632;28;20285;-79
2021/05/22 08:33:49;;;;;;;1.77;0.70;;;9.80;99.90;;;;;;5072584;28;20192;-79
2021/05/22 08:36:16;;;;;;;0.60;0.60;;;9.80;99.90;;;;;;5072877;28;20211;-81
2021/05/22 08:38:43;;;;;;;0.50;0.40;;;9.80;99.90;;;;;;5072306;28;20216;-79
2021/05/22 08:41:10;;;;;;;0.50;0.40;;;9.90;99.90;;;;;;5072295;28;20196;-80
2021/05/22 08:43:36;;;;;;;2.88;0.70;;;9.90;99.90;;;;;;5072587;28;20207;-78
2021/05/22 08:46:08;;;;;;;0.50;0.50;;;9.90;99.90;;;;;;5072597;28;20606;-78
2021/05/22 08:48:34;;;;;;;1.17;0.98;;;9.90;99.90;;;;;;5072437;28;20622;-78
2021/05/22 08:51:01;;;;;;;0.50;0.40;;;9.90;99.90;;;;;;5072466;28;20203;-79
2021/05/22 08:53:28;;;;;;;1.90;0.90;;;9.90;99.90;;;;;;5072000;28;20202;-78
2021/05/22 08:55:54;;;;;;;1.08;0.60;;;10.00;99.90;;;;;;5072766;28;20222;-79
2021/05/22 08:58:21;;;;;;;3.35;0.88;;;10.10;99.90;;;;;;5071910;28;20696;-79
2021/05/22 09:00:47;;;;;;;0.68;0.68;;;10.10;99.90;;;;;;5072288;28;20192;-81
2021/05/22 09:03:14;;;;;;;1.05;1.05;;;10.10;99.90;;;;;;5072165;28;20189;-79
2021/05/22 09:05:42;;;;;;;6.15;0.50;;;10.10;99.90;;;;;;5072737;28;20200;-77
2021/05/22 09:08:11;;;;;;;0.82;0.68;;;10.20;99.90;;;;;;5072123;28;20703;-77
2021/05/22 09:10:41;;;;;;;0.60;0.50;;;10.20;99.90;;;;;;5072480;28;20704;-79
2021/05/22 09:13:09;;;;;;;0.65;0.65;;;10.20;99.90;;;;;;5072789;28;20282;-77
2021/05/22 09:15:37;;;;;;;0.50;0.40;;;10.20;99.90;;;;;;5071972;28;20740;-79
2021/05/22 09:18:06;;;;;;;0.70;0.70;;;10.20;99.90;;;;;;5072809;28;20201;-78
2021/05/22 09:20:34;;;;;;;1.17;0.77;;;10.30;99.90;;;;;;5072612;28;20737;-78
2021/05/22 09:23:03;;;;;;;0.85;0.85;;;10.30;99.90;;;;;;5073230;28;20196;-77
2021/05/22 09:25:31;;;;;;;0.50;0.50;;;10.30;99.90;;;;;;5072569;28;20196;-79
2021/05/22 09:27:58;;;;;;;0.50;0.40;;;10.30;99.90;;;;;;5076720;28;20220;-79
2021/05/22 09:30:27;;;;;;;0.50;0.40;;;10.40;99.90;;;;;;5076783;28;20212;-80
2021/05/22 09:32:54;;;;;;;0.70;0.63;;;10.50;99.90;;;;;;5076447;28;20189;-80
2021/05/22 09:35:22;;;;;;;2.05;1.13;;;10.50;99.90;;;;;;5076517;28;20192;-77
2021/05/22 09:37:50;;;;;;;1.02;1.02;;;10.60;99.90;;;;;;5076497;28;20190;-80
2021/05/22 09:40:19;;;;;;;0.70;0.70;;;10.60;99.90;;;;;;5076504;28;20223;-79
2021/05/22 09:42:46;;;;;;;14.05;1.90;;;10.70;99.90;;;;;;5077037;28;20196;-81
2021/05/22 09:45:24;;;;;;;0.63;0.63;;;10.70;99.90;;;;;;5076103;28;20613;-78
2021/05/22 09:47:51;;;;;;;2.65;1.13;;;10.70;99.90;;;;;;5081818;28;20223;-79
2021/05/22 09:50:28;;;;;;;0.90;0.50;;;10.90;99.90;;;;;;5077678;28;20266;-79
2021/05/22 09:52:55;;;;;;;2.55;0.70;;;11.00;99.90;;;;;;5081902;28;20223;-79
2021/05/22 09:55:23;;;;;;;0.60;0.60;;;10.90;99.90;;;;;;5075282;28;20253;-78
2021/05/22 09:57:51;;;;;;;4.07;0.88;;;11.00;99.90;;;;;;5075754;28;20199;-78
2021/05/22 10:00:18;;;;;;;0.60;0.60;;;11.00;99.90;;;;;;5075056;28;20221;-80
2021/05/22 10:02:47;;;;;;;0.80;0.55;;;10.90;99.90;;;;;;5075844;28;20199;-79
2021/05/22 10:05:16;;;;;;;1.02;0.60;;;10.90;99.90;;;;;;5075886;28;20189;-78
2021/05/22 10:07:44;;;;;;;0.70;0.50;;;10.90;99.90;;;;;;5075224;28;20552;-78
2021/05/22 10:10:11;;;;;;;1.88;1.05;;;10.90;99.90;;;;;;5075141;28;20562;-78
2021/05/22 10:12:39;;;;;;;1.20;0.93;;;11.00;99.90;;;;;;5075493;28;20237;-78
2021/05/22 10:15:06;;;;;;;12.57;3.33;;;11.00;99.90;;;;;;5074935;28;20267;-78
2021/05/22 10:17:33;;;;;;;3.17;0.70;;;11.00;99.90;;;;;;5076556;28;20213;-79
2021/05/22 10:20:00;;;;;;;1.25;0.73;;;11.10;99.90;;;;;;5076209;28;20216;-79
2021/05/22 10:22:27;;;;;;;1.17;0.70;;;11.10;99.90;;;;;;5075907;28;20204;-80
2021/05/22 10:24:53;;;;;;;0.50;0.47;;;11.20;99.90;;;;;;5076218;28;20597;-79
2021/05/22 10:27:20;;;;;;;1.95;0.90;;;11.30;99.90;;;;;;5076164;28;20258;-79
2021/05/22 10:29:47;;;;;;;0.70;0.70;;;11.30;99.90;;;;;;5075494;28;20247;-80
2021/05/22 10:32:19;;;;;;;0.85;0.65;;;11.20;99.90;;;;;;5075431;28;20198;-78
2021/05/22 10:34:48;;;;;;;0.60;0.60;;;11.30;99.90;;;;;;5074427;28;20192;-79
2021/05/22 10:37:40;;;;;;;0.50;0.40;;;11.30;99.90;;;;;;5075709;28;20318;-79
2021/05/22 10:40:09;;;;;;;1.33;0.60;;;11.30;99.90;;;;;;5075496;28;20579;-79
2021/05/22 10:42:54;;;;;;;1.65;1.02;;;11.10;99.90;;;;;;5075118;28;20203;-77
2021/05/22 10:45:42;;;;;;;0.85;0.80;;;11.00;99.90;;;;;;5074837;28;20224;-76
2021/05/22 10:48:29;;;;;;;2.25;0.90;;;10.90;99.90;;;;;;5074632;28;20202;-79
2021/05/22 10:50:56;;;;;;;1.50;1.40;;;10.80;99.90;;;;;;5074332;28;20195;-80
2021/05/22 10:53:28;;;;;;;4.97;1.48;;;10.90;99.90;;;;;;5074316;28;20278;-79
2021/05/22 10:56:10;;;;;;;0.77;0.75;;;10.90;99.90;;;;;;5074691;28;20711;-78
2021/05/22 10:58:37;;;;;;;2.05;1.02;;;10.90;99.90;;;;;;5073575;28;20313;-78
2021/05/22 11:01:29;;;;;;;0.65;0.50;;;10.90;99.90;;;;;;5087828;22;20242;-79
2021/05/22 11:04:25;;;;;;;0.60;0.50;;;10.80;99.90;;;;;;5004215;28;20199;-79
2021/05/22 11:06:53;;;;;;;0.70;0.70;;;10.80;99.90;;;;;;5023315;28;20214;-79
2021/05/22 11:10:02;;;;;;;2.25;0.77;;;10.80;99.90;;;;;;5027009;28;20238;-79
2021/05/22 11:12:47;;;;;;;1.25;0.73;;;10.70;99.90;;;;;;5046204;28;20187;-80
2021/05/22 11:15:39;;;;;;;1.40;1.00;;;10.70;99.90;;;;;;5042508;28;20196;-79
2021/05/22 11:18:05;;;;;;;1.73;0.70;;;10.70;99.90;;;;;;5043883;28;20189;-78
2021/05/22 11:20:33;;;;;;;2.60;1.77;;;10.80;99.90;;;;;;5044697;28;20232;-79
2021/05/22 11:23:01;;;;;;;1.08;0.98;;;10.90;99.90;;;;;;5043767;28;20198;-80
2021/05/22 11:25:43;;;;;;;0.50;0.50;;;10.90;99.90;;;;;;5041728;28;20265;-79
2021/05/22 11:28:16;;;;;;;0.90;0.57;;;10.90;99.90;;;;;;5046090;28;20206;-80
2021/05/22 11:30:44;;;;;;;0.93;0.80;;;10.80;99.90;;;;;;5057507;28;20218;-79
2021/05/22 11:33:26;;;;;;;0.60;0.60;;;10.80;99.90;;;;;;5058675;28;20201;-79
2021/05/22 11:35:54;;;;;;;3.55;1.98;;;10.70;99.90;;;;;;5066262;28;20193;-79
2021/05/22 11:38:38;;;;;;;1.15;1.05;;;10.70;99.90;;;;;;5066022;28;20189;-76
2021/05/22 11:41:07;;;;;;;2.35;2.15;;;10.70;99.90;;;;;;5067413;28;20228;-81
2021/05/22 11:43:37;;;;;;;1.15;0.75;;;10.70;99.90;;;;;;5066606;28;20232;-79
2021/05/22 11:46:06;;;;;;;0.60;0.45;;;10.70;99.90;;;;;;5067005;28;20294;-79
2021/05/22 11:48:34;;;;;;;0.80;0.70;;;10.70;99.90;;;;;;5067392;28;20257;-80
2021/05/22 11:51:12;;;;;;;1.40;1.30;;;10.70;99.90;;;;;;5065652;28;20305;-78
2021/05/22 11:53:40;;;;;;;1.58;0.75;;;10.70;99.90;;;;;;5065858;28;20193;-80
2021/05/22 11:56:09;;;;;;;9.10;0.90;;;10.80;99.90;;;;;;5066251;28;20624;-79
2021/05/22 11:58:38;;;;;;;0.90;0.70;;;10.80;99.90;;;;;;5066449;28;20575;-80
2021/05/22 12:01:10;;;;;;;1.50;1.10;;;10.70;99.90;;;;;;5061586;28;20218;-79
2021/05/22 12:03:37;;;;;;;1.13;1.02;;;10.70;99.90;;;;;;5061608;28;20208;-79
2021/05/22 12:06:05;;;;;;;0.60;0.60;;;10.70;99.90;;;;;;5066081;28;20201;-79
2021/05/22 12:08:32;;;;;;;0.50;0.40;;;10.70;99.90;;;;;;5065769;28;20256;-80
2021/05/22 12:10:58;;;;;;;1.83;1.67;;;10.70;99.90;;;;;;5065822;28;20227;-80
2021/05/22 12:13:24;;;;;;;8.85;1.33;;;10.60;99.90;;;;;;5065372;28;20201;-79
2021/05/22 12:15:55;;;;;;;0.50;0.40;;;10.60;99.90;;;;;;5066079;28;20203;-79
2021/05/22 12:18:21;;;;;;;1.98;0.60;;;10.70;99.90;;;;;;5061549;28;20284;-75
2021/05/22 12:20:49;;;;;;;1.23;0.65;;;10.70;99.90;;;;;;5060589;28;20228;-79
2021/05/22 12:23:29;;;;;;;0.70;0.70;;;10.70;99.90;;;;;;5059431;28;20202;-77
2021/05/22 12:25:57;;;;;;;0.50;0.43;;;10.80;99.90;;;;;;5062249;28;20215;-79
2021/05/22 12:28:24;;;;;;;2.55;0.85;;;10.80;99.90;;;;;;5061695;28;20237;-78
2021/05/22 12:30:53;;;;;;;1.20;1.10;;;10.90;99.90;;;;;;5049239;28;20222;-79
2021/05/22 12:33:19;;;;;;;1.55;1.55;;;11.00;99.90;;;;;;5059011;28;20202;-78
2021/05/22 12:35:47;;;;;;;0.50;0.40;;;11.10;99.90;;;;;;5060281;28;20193;-78
2021/05/22 12:38:13;;;;;;;1.15;0.82;;;11.00;99.90;;;;;;5060676;28;20190;-78
2021/05/22 12:40:47;;;;;;;2.80;1.02;;;11.00;99.90;;;;;;5064402;28;20674;-81
2021/05/22 12:43:13;;;;;;;0.60;0.50;;;11.10;99.90;;;;;;5064438;28;20186;-79
2021/05/22 12:45:42;;;;;;;1.40;0.75;;;11.10;99.90;;;;;;5064589;28;20216;-80
2021/05/22 12:48:23;;;;;;;0.50;0.40;;;11.10;99.90;;;;;;5065263;28;20587;-80
2021/05/22 12:50:49;;;;;;;0.60;0.50;;;11.10;99.90;;;;;;5064990;28;20208;-80
2021/05/22 12:53:28;;;;;;;0.70;0.55;;;11.10;99.90;;;;;;5064328;28;20555;-77